Linden Pride — H3VP — position and weather

sailwx.info

Track history (hours):
 
Tides and Currents Weather Stations Pressure Air Temp Water Temp Dewpoint Dewpoint Depression Visibility Wind Speed Wind Dir Waves Ship Positions

Linden Pride

Last reported at 2014-Oct-09 04:33 UTC. Time now 2014-Oct-31 15:52 UTC.
Position N 01°12' E 103°32'.
Warning: this ship's position is 22 days out of date.

Length 230 m; beam 36.6 m.

Type: Tanker. MMSI: 356677000.

Date/timePositionNaut miles runAvg speedWind from/ knotsBaromVisibWave heightAir tempDewpointWater temp
2014-Oct-09 04:33N 01°12' E 103°32'1110.9
2014-Oct-09 03:33N 01°10' E 103°42'1 0.7
2014-Oct-09 02:31N 01°10' E 103°43'0 0.1
2014-Oct-09 01:31N 01°10' E 103°43'0 0.0
2014-Oct-09 00:31N 01°10' E 103°43'0 0.1
2014-Oct-08 23:31N 01°10' E 103°43'0 0.0
2014-Oct-08 22:31N 01°10' E 103°43'0 0.1
2014-Oct-08 21:31N 01°10' E 103°43'0 0.1
2014-Oct-08 20:22N 01°10' E 103°43'0 0.2
2014-Oct-08 19:31N 01°10' E 103°43'0 0.0
2014-Oct-08 18:25N 01°10' E 103°43'0 0.1
2014-Oct-08 17:31N 01°10' E 103°43'0 0.1
2014-Oct-08 16:28N 01°10' E 103°43'0 0.0
2014-Oct-08 15:31N 01°10' E 103°43'0 0.1
2014-Oct-08 14:22N 01°10' E 103°43'0 0.1
2014-Oct-08 13:13N 01°10' E 103°43'0 0.1
2014-Oct-08 12:31N 01°10' E 103°43'0 0.0
2014-Oct-08 11:31N 01°10' E 103°43'0 0.1
2014-Oct-08 10:28N 01°10' E 103°43'4 4.7
2014-Oct-08 09:33N 01°11' E 103°47'9 9.3
2014-Oct-08 08:33N 01°14' E 103°56'9 8.3
2014-Oct-08 07:29N 01°16' E 104°04'8 8.5
2014-Oct-08 06:31N 01°17' E 104°13'  
2014-Oct-01 14:06N 31°39' E 133°41'916.3
2014-Oct-01 13:31N 31°46' E 133°47'14915.0
2014-Oct-01 03:33N 34°03' E 134°58'1311.9
2014-Oct-01 02:29N 34°16' E 134°58'1313.5
2014-Oct-01 01:33N 34°27' E 135°06'1414.5
2014-Oct-01 00:33N 34°39' E 135°16'3 3.1
2014-Sep-30 23:32N 34°42' E 135°15'0 0.0
2014-Sep-30 22:26N 34°42' E 135°15'0 0.0
2014-Sep-30 21:26N 34°42' E 135°15'0 0.0
2014-Sep-30 20:32N 34°42' E 135°15'0 0.0
2014-Sep-30 19:32N 34°42' E 135°15'0 0.0
2014-Sep-30 18:32N 34°42' E 135°15'0 0.0
2014-Sep-30 17:32N 34°42' E 135°15'0 0.0
2014-Sep-30 16:32N 34°42' E 135°15'0 0.0
2014-Sep-30 15:32N 34°42' E 135°15'0 0.0
2014-Sep-30 14:32N 34°42' E 135°15'0 0.0
2014-Sep-30 13:32N 34°42' E 135°15'0 0.0
2014-Sep-30 12:29N 34°42' E 135°15'0 0.0
2014-Sep-30 11:17N 34°42' E 135°15'0 0.0
2014-Sep-30 10:23N 34°42' E 135°15'0 0.0
2014-Sep-30 09:29N 34°42' E 135°15'0 0.0
2014-Sep-30 08:29N 34°42' E 135°15'0 0.0
2014-Sep-30 07:29N 34°42' E 135°15'0 0.0
2014-Sep-30 06:23N 34°42' E 135°15'0 0.0
2014-Sep-30 05:29N 34°42' E 135°15'0 0.0
2014-Sep-30 04:29N 34°42' E 135°15'0 0.0
2014-Sep-30 03:29N 34°42' E 135°15'0 0.0
2014-Sep-30 02:24N 34°42' E 135°15'3 3.2
2014-Sep-30 01:34N 34°39' E 135°16'8 8.2
2014-Sep-30 00:33N 34°32' E 135°12'1413.9
2014-Sep-29 23:34N 34°21' E 135°02'1212.0
2014-Sep-29 22:33N 34°09' E 134°60'8 7.6
2014-Sep-29 21:34N 34°01' E 134°59'  
Track history (hours):
 
Tides and Currents Weather Stations Pressure Air Temp Water Temp Dewpoint Dewpoint Depression Visibility Wind Speed Wind Dir Waves Ship Positions

Linden Pride

Last reported at 2014-Oct-09 04:33 UTC. Time now 2014-Oct-31 15:52 UTC.
Position N 01°12' E 103°32'.
Warning: this ship's position is 22 days out of date.

Length 230 m; beam 36.6 m.

Type: Tanker. MMSI: 356677000.

Date/timePositionNaut miles runAvg speedWind from/ knotsBaromVisibWave heightAir tempDewpointWater temp
2014-Oct-09 04:33N 01°12' E 103°32'1110.9
2014-Oct-09 03:33N 01°10' E 103°42'1 0.7
2014-Oct-09 02:31N 01°10' E 103°43'0 0.1
2014-Oct-09 01:31N 01°10' E 103°43'0 0.0
2014-Oct-09 00:31N 01°10' E 103°43'0 0.1
2014-Oct-08 23:31N 01°10' E 103°43'0 0.0
2014-Oct-08 22:31N 01°10' E 103°43'0 0.1
2014-Oct-08 21:31N 01°10' E 103°43'0 0.1
2014-Oct-08 20:22N 01°10' E 103°43'0 0.2
2014-Oct-08 19:31N 01°10' E 103°43'0 0.0
2014-Oct-08 18:25N 01°10' E 103°43'0 0.1
2014-Oct-08 17:31N 01°10' E 103°43'0 0.1
2014-Oct-08 16:28N 01°10' E 103°43'0 0.0
2014-Oct-08 15:31N 01°10' E 103°43'0 0.1
2014-Oct-08 14:22N 01°10' E 103°43'0 0.1
2014-Oct-08 13:13N 01°10' E 103°43'0 0.1
2014-Oct-08 12:31N 01°10' E 103°43'0 0.0
2014-Oct-08 11:31N 01°10' E 103°43'0 0.1
2014-Oct-08 10:28N 01°10' E 103°43'4 4.7
2014-Oct-08 09:33N 01°11' E 103°47'9 9.3
2014-Oct-08 08:33N 01°14' E 103°56'9 8.3
2014-Oct-08 07:29N 01°16' E 104°04'8 8.5
2014-Oct-08 06:31N 01°17' E 104°13'  
2014-Oct-01 14:06N 31°39' E 133°41'916.3
2014-Oct-01 13:31N 31°46' E 133°47'14915.0
2014-Oct-01 03:33N 34°03' E 134°58'1311.9
2014-Oct-01 02:29N 34°16' E 134°58'1313.5
2014-Oct-01 01:33N 34°27' E 135°06'1414.5
2014-Oct-01 00:33N 34°39' E 135°16'3 3.1
2014-Sep-30 23:32N 34°42' E 135°15'0 0.0
2014-Sep-30 22:26N 34°42' E 135°15'0 0.0
2014-Sep-30 21:26N 34°42' E 135°15'0 0.0
2014-Sep-30 20:32N 34°42' E 135°15'0 0.0
2014-Sep-30 19:32N 34°42' E 135°15'0 0.0
2014-Sep-30 18:32N 34°42' E 135°15'0 0.0
2014-Sep-30 17:32N 34°42' E 135°15'0 0.0
2014-Sep-30 16:32N 34°42' E 135°15'0 0.0
2014-Sep-30 15:32N 34°42' E 135°15'0 0.0
2014-Sep-30 14:32N 34°42' E 135°15'0 0.0
2014-Sep-30 13:32N 34°42' E 135°15'0 0.0
2014-Sep-30 12:29N 34°42' E 135°15'0 0.0
2014-Sep-30 11:17N 34°42' E 135°15'0 0.0
2014-Sep-30 10:23N 34°42' E 135°15'0 0.0
2014-Sep-30 09:29N 34°42' E 135°15'0 0.0
2014-Sep-30 08:29N 34°42' E 135°15'0 0.0
2014-Sep-30 07:29N 34°42' E 135°15'0 0.0
2014-Sep-30 06:23N 34°42' E 135°15'0 0.0
2014-Sep-30 05:29N 34°42' E 135°15'0 0.0
2014-Sep-30 04:29N 34°42' E 135°15'0 0.0
2014-Sep-30 03:29N 34°42' E 135°15'0 0.0
2014-Sep-30 02:24N 34°42' E 135°15'3 3.2
2014-Sep-30 01:34N 34°39' E 135°16'8 8.2
2014-Sep-30 00:33N 34°32' E 135°12'1413.9
2014-Sep-29 23:34N 34°21' E 135°02'1212.0
2014-Sep-29 22:33N 34°09' E 134°60'8 7.6
2014-Sep-29 21:34N 34°01' E 134°59'  

Dump ship's entire track history